Forum - i mitici sud

tutti gli utenti del gruppo possono partecipare le discussione con riferimento a sesso o non conforme a chatta.it verranno imossi

Amministratore
FCFranco 19/03/2017 ore 08:58 Quota

(nessuno) Nowcasting Domenica 19 Marzo 2017

Buongiorno a tutti


Notizie Meteo dell'Italia da il Meteo .It


http://ilMeteo.It


la Situazione Italiana vista dal Sat








il Radar Europeo









Brindisi

METAR LIBR 190645Z 00000KT CAVOK 12/06 Q1013 NOSIG RMK SCT SCT200 VIS MIN 9999 WIND THR13 /////KT WIND THR31 25003KT BLU=

Metar di Brindisi del 19 alle 6,45z

Calma di vento , Visibilitą 10000 m
Base delle Nubi e Visibilitą OK
Temp 12°C Dew 6°C Ur 66% hPa 1013
Aumento della Nuvolositą a 3-4 ottavi
Copertura 3-4 ottavi da 20000 piedi (6096 m)
Visibilitą Minima 10000 m

Brindisi

TAF LIBR 190500Z 1906/2006 22010KT CAVOK BECMG 1911/1913 04007KT BECMG 1918/1920 18007KT=

le TAF di Brindisi delle 5z Previsioni dalle 6z alle 6z del 20

Vento da 220° S SW 10 nodi (18,52 km)Visibilitą 10000 m
Base delle Nubi e Visibilitą OK
le Condizioni Diverranno fra le 11z e le 13z
Vento da 40° N NE 7 nodi (12,962 km)
le Condizioni Diverranno fra le 18z e le 20z
Vento da 180° S - 7 nodi (12,962 km)


Gioia del Colle

METAR LIBV 190655Z 22004KT CAVOK 12/07 Q1011 RMK SCT SCT230 VIS MIN 9999 WIND THR32 /////KT WIND THR14 21005KT BLU=

Metar di Gioia del Colle del 19 alle 6,55z

Vento da 220° S SW 4 nodi (7,408 km) Visibilitą 10000 m
Base delle Nubi e Visibilitą OK
Yemp 12°C Dew 7°C Ur 71% hPa 1011
Aumento della Nuvolositą a 3-4 ottavi
Copertura 3-4 ottavi da 23000 piedi (7010,4 m)
Visibilitą Minima 10000 m

Gioia del Colle

TAF LIBV 190500Z 1906/1915 20010KT 9999 FEW020=

le TAF di Gioia del Colle delle 5z Previsioni dalle 6z alle 15z

Vento da 200° S SW 10 nodi (18,52 km) Visibilitą 10000 m
Copertura 1-2 ottavi da 2000 piedi (609,6 m)
2336304
Buongiorno a tutti Notizie Meteo dell'Italia da il Meteo .It http://ilMeteo.It la Situazione Italiana vista dal Sat « immagine »...
Discussione
19/03/2017 08:58:11
none
  • mi piace
    iLikeIt
    PublicVote

Vuoi partecipare anche tu a questa discussione?

Rispondi per lasciare il tuo messaggio in questa discussione